Time;durP1;ratioP1;P1;durP2;ratioP2;P2;SDS_P1;SDS_P2;PMS_P1;PMS_P2;Temp;Humidity;BMP_temperature;BMP_pressure;BME280_temperature;BME280_humidity;BME280_pressure;Samples;Min_cycle;Max_cycle;Signal;HPM_P1;HPM_P2
2022/05/24 00:01:32;;;;;;;2.63;1.17;;;;;;;25.80;35.45;101421.34;4894827;29;20686;-79
2022/05/24 00:04:01;;;;;;;2.50;1.00;;;;;;;25.58;32.15;101413.88;4894922;29;20052;-80
2022/05/24 00:06:31;;;;;;;3.70;1.00;;;;;;;25.42;33.80;101415.13;4895067;29;20084;-80
2022/05/24 00:09:01;;;;;;;1.40;0.98;;;;;;;25.28;34.17;101412.78;4895101;29;20064;-85
2022/05/24 00:11:29;;;;;;;2.30;1.38;;;;;;;25.15;33.58;101412.16;4894983;29;20057;-81
2022/05/24 00:13:58;;;;;;;1.65;1.00;;;;;;;25.04;33.24;101419.44;4895185;29;20045;-87
2022/05/24 00:16:26;;;;;;;3.30;0.98;;;;;;;24.91;33.79;101413.50;4894421;29;20554;-86
2022/05/24 00:18:56;;;;;;;2.35;1.25;;;;;;;24.82;35.95;101409.25;4897755;29;20087;-79
2022/05/24 00:21:25;;;;;;;1.85;1.17;;;;;;;24.79;36.67;101419.91;4914184;28;20142;-82
2022/05/24 00:23:59;;;;;;;4.25;0.90;;;;;;;24.77;35.95;101419.06;4912981;29;20083;-80
2022/05/24 00:26:31;;;;;;;2.33;1.08;;;;;;;24.84;35.73;101415.38;4912623;29;20517;-84
2022/05/24 00:29:00;;;;;;;1.58;1.10;;;;;;;24.98;37.64;101414.25;4913725;29;20557;-82
2022/05/24 00:31:29;;;;;;;2.88;1.20;;;;;;;25.13;37.02;101413.94;4913986;29;20514;-82
2022/05/24 00:33:59;;;;;;;1.55;0.90;;;;;;;25.29;32.66;101409.25;4914369;29;20048;-82
2022/05/24 00:36:27;;;;;;;2.92;0.93;;;;;;;25.41;33.98;101397.50;4913232;29;20392;-82
2022/05/24 00:39:03;;;;;;;2.88;0.88;;;;;;;25.58;33.73;101411.22;4913107;29;20052;-82
2022/05/24 00:41:36;;;;;;;2.78;1.30;;;;;;;25.61;33.84;101389.97;4913069;29;20052;-84
2022/05/24 00:44:08;;;;;;;2.45;1.17;;;;;;;25.77;32.25;101400.19;4913439;29;20123;-82
2022/05/24 00:46:46;;;;;;;4.10;1.10;;;;;;;25.82;33.18;101399.19;4903780;29;20112;-83
2022/05/24 00:49:19;;;;;;;2.35;0.90;;;;;;;25.86;35.09;101395.56;4895057;29;20087;-85
2022/05/24 00:51:53;;;;;;;1.88;0.88;;;;;;;25.93;33.65;101396.34;4898468;29;20048;-84
2022/05/24 00:54:21;;;;;;;1.15;0.80;;;;;;;25.94;32.19;101394.56;4913014;29;20044;-86
2022/05/24 00:56:55;;;;;;;1.30;0.88;;;;;;;25.89;34.03;101389.38;4913175;29;20134;-82
2022/05/24 00:59:33;;;;;;;2.90;0.80;;;;;;;25.90;34.00;101397.25;4912406;29;20048;-84
2022/05/24 01:02:03;;;;;;;1.70;0.77;;;;;;;25.90;34.09;101396.38;4913125;29;20161;-85
2022/05/24 01:04:33;;;;;;;2.78;0.80;;;;;;;25.80;34.38;101406.31;4912492;29;20048;-84
2022/05/24 01:07:01;;;;;;;1.60;0.80;;;;;;;25.73;35.93;101393.25;4912689;29;20090;-84
2022/05/24 01:09:37;;;;;;;1.38;0.70;;;;;;;25.54;34.67;101392.78;4912174;29;20048;-85
2022/05/24 01:12:10;;;;;;;3.08;0.82;;;;;;;25.41;36.29;101397.50;4913055;29;20490;-85
2022/05/24 01:14:39;;;;;;;3.63;1.00;;;;;;;25.35;36.42;101387.03;4913062;29;20459;-83
2022/05/24 01:17:08;;;;;;;1.88;0.80;;;;;;;25.30;36.14;101395.06;4913689;29;20096;-83
2022/05/24 01:19:43;;;;;;;1.38;0.77;;;;;;;25.18;37.08;101396.22;4913196;29;20541;-86
2022/05/24 01:22:34;;;;;;;2.08;0.80;;;;;;;25.04;36.82;101398.25;4914549;28;20060;-85
2022/05/24 01:25:09;;;;;;;2.75;1.00;;;;;;;24.79;36.52;101393.44;4912501;29;20515;-84
2022/05/24 01:27:39;;;;;;;1.25;0.80;;;;;;;24.61;37.39;101394.66;4914904;29;20048;-85
2022/05/24 01:30:10;;;;;;;1.60;1.00;;;;;;;24.53;38.40;101393.03;4916514;29;20111;-83
2022/05/24 01:38:15;;;;;;;1.45;0.80;;;;;;;24.07;36.33;101393.81;4916819;29;20103;-85
2022/05/24 01:40:44;;;;;;;0.90;0.68;;;;;;;23.85;38.08;101393.31;4916199;29;20075;-85
2022/05/24 01:43:14;;;;;;;1.23;0.60;;;;;;;23.59;37.61;101403.31;4916922;29;20048;-83
2022/05/24 01:45:48;;;;;;;1.42;0.90;;;;;;;23.40;38.57;101400.03;4913693;29;20059;-83
2022/05/24 01:48:21;;;;;;;1.60;0.70;;;;;;;23.29;39.44;101398.44;4897430;29;20088;-85
2022/05/24 01:50:53;;;;;;;2.20;0.60;;;;;;;23.08;38.83;101404.88;4897172;29;20136;-86
2022/05/24 01:53:27;;;;;;;1.75;0.68;;;;;;;22.75;39.43;101399.94;4913266;29;20495;-79
2022/05/24 01:55:58;;;;;;;2.30;0.77;;;;;;;22.56;39.04;101393.06;4915781;29;20143;-84
2022/05/24 01:58:33;;;;;;;1.13;0.80;;;;;;;22.41;39.40;101395.88;4916293;29;20099;-81
2022/05/24 02:01:07;;;;;;;1.35;0.80;;;;;;;22.32;40.29;101392.44;4916207;29;20171;-82
2022/05/24 02:03:35;;;;;;;2.70;0.65;;;;;;;22.26;40.47;101400.38;4915422;29;20080;-82
2022/05/24 02:06:20;;;;;;;1.67;0.80;;;;;;;22.16;40.23;101394.28;4915860;29;20087;-81
2022/05/24 02:08:49;;;;;;;1.30;0.70;;;;;;;22.08;40.78;101400.50;4915694;29;20082;-83
2022/05/24 02:11:20;;;;;;;2.85;0.63;;;;;;;22.00;40.02;101402.34;4916493;29;20048;-85
2022/05/24 02:13:56;;;;;;;2.72;0.70;;;;;;;21.91;40.52;101403.28;4915871;29;20043;-84
2022/05/24 02:16:28;;;;;;;1.77;0.60;;;;;;;21.80;41.18;101403.34;4916003;29;20087;-84
2022/05/24 02:18:56;;;;;;;;;;;;;;;21.62;40.96;101403.47;4919162;29;20048;-87
2022/05/24 02:21:25;;;;;;;2.25;0.80;;;;;;;21.51;40.79;101399.13;4917086;28;19923;-86
2022/05/24 02:23:53;;;;;;;2.05;0.52;;;;;;;21.42;40.31;101393.94;4915626;29;20127;-86
2022/05/24 02:26:26;;;;;;;0.90;0.60;;;;;;;21.28;40.63;101398.31;4916774;29;20083;-89
2022/05/24 02:28:57;;;;;;;1.58;0.47;;;;;;;21.19;41.71;101404.53;4915851;29;20063;-87
2022/05/24 02:31:26;;;;;;;0.93;0.45;;;;;;;21.09;41.97;101406.28;4916078;29;20052;-85
2022/05/24 02:33:55;;;;;;;1.00;0.43;;;;;;;21.00;42.73;101414.22;4915021;29;20080;-88
2022/05/24 02:36:25;;;;;;;0.63;0.43;;;;;;;20.94;43.44;101411.63;4917594;29;20048;-88
2022/05/24 02:38:53;;;;;;;1.70;0.40;;;;;;;20.88;44.32;101422.16;4917422;29;20513;-88
2022/05/24 02:41:31;;;;;;;0.63;0.30;;;;;;;20.78;43.69;101415.19;4919057;29;20198;-89
2022/05/24 02:44:06;;;;;;;0.90;0.40;;;;;;;20.60;42.53;101414.31;4920813;29;20139;-86
2022/05/24 02:46:36;;;;;;;0.93;0.35;;;;;;;20.35;42.64;101420.44;4906707;29;20079;-87
2022/05/24 02:49:05;;;;;;;0.75;0.47;;;;;;;20.18;43.75;101413.44;4896364;29;20495;-79
2022/05/24 02:51:33;;;;;;;1.17;0.30;;;;;;;20.05;44.07;101420.44;4899970;29;20125;-87
2022/05/24 02:54:02;;;;;;;1.15;0.40;;;;;;;19.87;44.16;101423.91;4918396;29;20096;-88
2022/05/24 02:56:31;;;;;;;1.15;0.20;;;;;;;19.75;44.72;101421.25;4917282;29;20056;-91
2022/05/24 02:59:01;;;;;;;0.32;0.20;;;;;;;19.51;45.51;101418.53;4919383;29;20443;-92
2022/05/24 03:01:30;;;;;;;1.63;0.40;;;;;;;19.40;45.48;101434.22;4915584;29;20736;-89
2022/05/24 03:04:00;;;;;;;0.40;0.30;;;;;;;19.33;45.83;101427.22;4919128;29;20069;-89
2022/05/24 03:09:33;;;;;;;2.38;0.50;;;;;;;19.23;45.55;101429.78;4918849;29;20095;-90
2022/05/24 03:14:57;;;;;;;0.50;0.40;;;;;;;18.83;48.19;101465.44;4915337;29;20063;-88
2022/05/24 03:17:27;;;;;;;1.67;0.40;;;;;;;18.68;47.85;101462.66;4916450;29;20044;-89
2022/05/24 03:19:55;;;;;;;0.77;0.22;;;;;;;18.53;47.52;101466.03;4914975;29;20554;-87
2022/05/24 03:22:24;;;;;;;1.50;0.40;;;;;;;18.44;47.96;101466.84;4915614;28;20056;-85
2022/05/24 03:24:52;;;;;;;0.43;0.20;;;;;;;18.39;47.58;101461.56;4914665;29;20048;-85
2022/05/24 03:27:21;;;;;;;0.40;0.30;;;;;;;18.38;48.73;101472.03;4914824;29;20090;-84
2022/05/24 03:29:49;;;;;;;0.30;0.30;;;;;;;18.32;49.36;101470.22;4914389;29;20639;-84
2022/05/24 03:32:20;;;;;;;2.75;0.55;;;;;;;18.19;48.98;101471.84;4914851;29;20059;-85
2022/05/24 03:34:49;;;;;;;2.38;0.35;;;;;;;18.13;48.88;101481.41;4914215;29;20058;-82
2022/05/24 03:37:17;;;;;;;0.95;0.35;;;;;;;18.06;49.42;101487.44;4914746;29;20041;-84
2022/05/24 03:39:46;;;;;;;1.27;0.40;;;;;;;17.99;49.98;101491.72;4913880;29;20083;-85
2022/05/24 03:42:14;;;;;;;1.00;0.32;;;;;;;17.94;49.07;101496.91;4915304;29;20059;-85
2022/05/24 03:44:43;;;;;;;1.15;0.30;;;;;;;17.88;50.31;101501.19;4917400;29;20577;-91
2022/05/24 03:47:11;;;;;;;1.13;0.40;;;;;;;17.81;49.65;101508.09;4902024;29;20048;-85
2022/05/24 03:49:42;;;;;;;1.02;0.50;;;;;;;17.73;49.50;101513.22;4896298;29;20088;-87
2022/05/24 03:52:10;;;;;;;1.95;0.28;;;;;;;17.67;50.35;101517.50;4904234;29;20511;-86
2022/05/24 03:54:39;;;;;;;1.35;0.50;;;;;;;17.53;51.03;101525.19;4917754;29;20103;-87
2022/05/24 03:59:53;;;;;;;0.63;0.30;;;;;;;17.33;50.52;101522.28;4915398;29;20195;-87
2022/05/24 04:02:21;;;;;;;1.02;0.30;;;;;;;17.26;50.84;101516.09;4914626;29;20112;-87
2022/05/24 04:04:51;;;;;;;2.55;0.30;;;;;;;17.21;51.95;101517.75;4918511;29;20094;-88
2022/05/24 04:07:20;;;;;;;1.85;0.40;;;;;;;17.15;50.91;101526.38;4917811;29;20044;-85
2022/05/24 04:09:48;;;;;;;0.40;0.30;;;;;;;17.07;51.72;101525.41;4913808;29;20820;-82
2022/05/24 04:12:17;;;;;;;3.28;0.43;;;;;;;17.01;51.94;101529.66;4913998;29;20079;-83
2022/05/24 04:14:52;;;;;;;0.40;0.30;;;;;;;16.94;51.98;101537.41;4913920;29;20116;-88
2022/05/24 04:17:21;;;;;;;0.30;0.20;;;;;;;16.91;51.64;101541.72;4914564;29;20086;-89
2022/05/24 04:19:51;;;;;;;2.40;0.28;;;;;;;16.82;51.88;101537.22;4915111;29;20791;-85
2022/05/24 04:22:19;;;;;;;0.40;0.35;;;;;;;16.76;50.94;101544.91;4916170;28;20063;-86
2022/05/24 04:24:48;;;;;;;0.40;0.20;;;;;;;16.69;50.78;101540.44;4919697;29;20074;-84
2022/05/24 04:27:16;;;;;;;0.38;0.20;;;;;;;16.61;51.09;101536.84;4914352;29;20067;-83
2022/05/24 04:29:45;;;;;;;0.50;0.40;;;;;;;16.52;52.31;101535.81;4916683;29;20052;-85
2022/05/24 04:32:15;;;;;;;1.00;0.47;;;;;;;16.47;51.90;101540.06;4915489;29;20120;-88
2022/05/24 04:34:43;;;;;;;1.17;0.50;;;;;;;16.42;52.70;101531.25;4916253;29;20410;-85
2022/05/24 04:37:14;;;;;;;0.52;0.40;;;;;;;16.38;52.64;101533.78;4913847;29;20727;-87
2022/05/24 04:39:42;;;;;;;0.88;0.40;;;;;;;16.29;53.58;101526.69;4915894;29;20052;-88
2022/05/24 04:42:19;;;;;;;0.50;0.32;;;;;;;16.18;52.79;101536.91;4921252;29;20086;-90
2022/05/24 04:44:49;;;;;;;0.35;0.20;;;;;;;16.04;53.35;101526.22;4918776;29;20056;-86
2022/05/24 04:47:18;;;;;;;1.35;0.20;;;;;;;15.95;54.67;101533.00;4898939;29;20416;-88
2022/05/24 04:49:49;;;;;;;3.60;0.40;;;;;;;15.84;55.53;101544.06;4897206;29;20550;-83
2022/05/24 04:52:20;;;;;;;0.25;0.25;;;;;;;15.72;55.60;101549.06;4906446;29;20219;-90
2022/05/24 04:54:48;;;;;;;0.68;0.40;;;;;;;15.62;56.95;101552.25;4921551;29;20052;-85
2022/05/24 04:57:17;;;;;;;1.48;0.40;;;;;;;15.49;56.13;101536.38;4914803;29;20537;-85
2022/05/24 04:59:46;;;;;;;0.38;0.30;;;;;;;15.50;56.03;101552.88;4916942;29;20619;-86
2022/05/24 05:02:15;;;;;;;0.57;0.47;;;;;;;15.45;55.46;101549.31;4917235;29;20056;-87
2022/05/24 05:04:44;;;;;;;0.68;0.45;;;;;;;15.43;55.45;101556.22;4919789;29;20066;-87
2022/05/24 05:07:12;;;;;;;0.70;0.45;;;;;;;15.39;55.90;101554.38;4924867;29;20052;-89
2022/05/24 05:09:43;;;;;;;1.05;0.30;;;;;;;15.35;56.62;101557.78;4920672;29;20048;-87
2022/05/24 05:12:12;;;;;;;0.40;0.25;;;;;;;15.28;56.99;101555.03;4919203;29;20052;-86
2022/05/24 05:14:42;;;;;;;0.68;0.30;;;;;;;15.25;56.66;101554.06;4920624;29;20048;-89
2022/05/24 05:17:11;;;;;;;0.40;0.40;;;;;;;15.20;57.41;101555.69;4917583;29;20051;-87
2022/05/24 05:19:47;;;;;;;1.23;0.20;;;;;;;15.20;58.00;101555.69;4919503;29;20137;-91
2022/05/24 05:22:16;;;;;;;2.65;0.40;;;;;;;15.16;58.61;101551.25;4922495;28;20110;-91
2022/05/24 05:24:46;;;;;;;0.40;0.30;;;;;;;15.08;58.68;101543.25;4922886;29;20410;-88
2022/05/24 05:27:14;;;;;;;0.60;0.57;;;;;;;15.06;58.89;101548.41;4920572;29;20665;-89
2022/05/24 05:32:30;;;;;;;1.25;0.40;;;;;;;15.01;59.09;101541.34;4921475;29;20071;-91
2022/05/24 05:34:59;;;;;;;0.60;0.32;;;;;;;14.97;58.87;101544.72;4919696;29;20059;-87
2022/05/24 05:37:29;;;;;;;0.63;0.43;;;;;;;14.94;59.81;101548.13;4920490;29;20573;-88
2022/05/24 05:40:01;;;;;;;1.33;0.40;;;;;;;14.90;59.94;101548.91;4925041;29;20048;-88
2022/05/24 05:42:30;;;;;;;1.70;0.50;;;;;;;14.83;59.04;101549.59;4929083;29;20048;-88
2022/05/24 05:45:00;;;;;;;0.50;0.38;;;;;;;14.83;59.80;101541.78;4931067;29;20482;-89
2022/05/24 05:47:28;;;;;;;2.75;0.98;;;;;;;14.81;60.24;101540.84;4907438;29;20053;-88
2022/05/24 05:49:56;;;;;;;1.30;0.30;;;;;;;14.77;60.50;101539.88;4903825;29;20510;-86
2022/05/24 05:52:25;;;;;;;1.20;0.38;;;;;;;14.76;61.01;101538.13;4921440;29;20044;-89
2022/05/24 05:54:53;;;;;;;0.90;0.65;;;;;;;14.74;60.66;101539.81;4924564;29;20052;-88
2022/05/24 05:57:24;;;;;;;0.93;0.35;;;;;;;14.71;61.17;101537.16;4924726;29;20072;-87
2022/05/24 05:59:54;;;;;;;1.00;0.57;;;;;;;14.66;60.19;101544.84;4918522;29;20136;-86
2022/05/24 06:02:22;;;;;;;0.75;0.50;;;;;;;14.63;60.42;101539.53;4918823;29;20497;-87
2022/05/24 06:04:51;;;;;;;2.10;0.95;;;;;;;14.56;61.27;101542.84;4916641;29;20075;-85
2022/05/24 06:07:25;;;;;;;3.75;0.77;;;;;;;14.51;60.88;101538.31;4916784;29;20132;-88
2022/05/24 06:09:54;;;;;;;1.95;0.63;;;;;;;14.44;59.71;101537.28;4916546;29;20557;-90
2022/05/24 06:12:24;;;;;;;2.97;0.70;;;;;;;14.42;60.50;101538.97;4921222;29;20075;-89
2022/05/24 06:14:52;;;;;;;1.48;0.63;;;;;;;14.41;60.50;101532.88;4918982;29;20088;-89
2022/05/24 06:17:21;;;;;;;1.58;0.88;;;;;;;14.41;61.39;101535.50;4916583;29;20107;-88
2022/05/24 06:19:49;;;;;;;3.25;0.98;;;;;;;14.37;61.03;101524.94;4916965;29;20125;-88
2022/05/24 06:22:18;;;;;;;0.50;0.40;;;;;;;14.32;60.95;101530.03;4919271;28;20531;-87
2022/05/24 06:24:46;;;;;;;2.60;0.70;;;;;;;14.30;61.56;101526.50;4919842;29;20060;-88
2022/05/24 06:27:15;;;;;;;0.65;0.40;;;;;;;14.29;60.72;101535.13;4917155;29;20048;-87
2022/05/24 06:29:45;;;;;;;0.88;0.45;;;;;;;14.25;61.27;101529.00;4917178;29;20048;-88
2022/05/24 06:32:14;;;;;;;0.47;0.43;;;;;;;14.22;61.78;101535.81;4920112;29;20096;-87
2022/05/24 06:34:42;;;;;;;0.47;0.30;;;;;;;14.21;62.13;101536.69;4916537;29;20546;-88
2022/05/24 06:37:10;;;;;;;1.38;0.22;;;;;;;14.16;61.69;101535.69;4919212;29;20104;-86
2022/05/24 06:39:39;;;;;;;0.63;0.35;;;;;;;14.13;61.07;101540.78;4916056;29;20082;-88
2022/05/24 06:42:08;;;;;;;0.45;0.30;;;;;;;14.02;61.38;101525.75;4915847;29;20064;-87
2022/05/24 06:44:36;;;;;;;0.57;0.43;;;;;;;14.07;61.69;101535.44;4918300;29;20086;-86
2022/05/24 06:47:07;;;;;;;0.50;0.30;;;;;;;14.04;61.39;101537.09;4902704;29;20056;-87
2022/05/24 06:49:36;;;;;;;0.60;0.30;;;;;;;14.03;61.89;101537.91;4901105;29;20052;-86
2022/05/24 06:52:05;;;;;;;0.50;0.35;;;;;;;14.01;61.66;101536.13;4903192;29;20083;-87
2022/05/24 06:54:35;;;;;;;1.50;0.40;;;;;;;13.97;61.49;101540.38;4916117;29;20044;-89
2022/05/24 06:57:04;;;;;;;1.02;0.40;;;;;;;13.94;61.74;101537.66;4916822;29;20427;-86
2022/05/24 07:02:29;;;;;;;0.30;0.30;;;;;;;13.89;62.24;101539.25;4917460;29;20116;-89
2022/05/24 07:04:59;;;;;;;0.60;0.30;;;;;;;13.86;62.33;101547.00;4916668;29;20570;-89
2022/05/24 07:07:28;;;;;;;0.82;0.50;;;;;;;13.81;62.08;101538.16;4917964;29;20083;-87
2022/05/24 07:09:57;;;;;;;1.00;0.43;;;;;;;13.85;62.37;101540.00;4916134;29;20076;-87
2022/05/24 07:12:26;;;;;;;3.88;0.47;;;;;;;13.78;62.02;101543.28;4916603;29;20052;-86
2022/05/24 07:14:55;;;;;;;0.30;0.30;;;;;;;13.76;63.40;101552.75;4918795;29;20059;-87
2022/05/24 07:17:25;;;;;;;1.35;0.30;;;;;;;13.71;63.17;101543.94;4915811;29;20561;-87
2022/05/24 07:19:54;;;;;;;0.40;0.30;;;;;;;13.66;62.12;101535.13;4915785;29;20121;-86
2022/05/24 07:22:22;;;;;;;0.55;0.40;;;;;;;13.64;62.98;101542.00;4923113;28;20554;-88
2022/05/24 07:24:51;;;;;;;2.30;0.40;;;;;;;13.62;62.37;101544.53;4919694;29;20080;-90
2022/05/24 07:27:21;;;;;;;0.40;0.35;;;;;;;13.61;63.84;101535.88;4919408;29;20048;-88
2022/05/24 07:29:50;;;;;;;0.28;0.20;;;;;;;13.62;64.99;101536.75;4917329;29;20087;-87
2022/05/24 07:32:19;;;;;;;0.20;0.20;;;;;;;13.60;63.53;101538.41;4917372;29;20087;-88
2022/05/24 07:34:49;;;;;;;1.63;0.30;;;;;;;13.58;63.85;101533.19;4916960;29;20079;-88
2022/05/24 07:37:21;;;;;;;0.47;0.47;;;;;;;13.55;63.83;101530.47;4920684;29;20051;-88
2022/05/24 07:45:47;;;;;;;1.08;0.60;;;;;;;13.51;64.05;101531.22;4917851;29;20048;-88
2022/05/24 07:48:09;;;;;;;1.55;0.30;;;;;;;13.47;64.71;101523.28;4917733;29;20562;-87
2022/05/24 07:50:39;;;;;;;0.40;0.22;;;;;;;13.46;64.32;101525.00;4924367;29;20143;-87
2022/05/24 07:53:08;;;;;;;0.88;0.30;;;;;;;13.44;64.63;101524.06;4907339;29;20507;-87
2022/05/24 07:55:36;;;;;;;2.72;0.22;;;;;;;13.41;64.08;101526.59;4896619;29;20052;-87
2022/05/24 07:58:05;;;;;;;0.20;0.20;;;;;;;13.34;64.03;101524.66;4896033;29;20052;-85
2022/05/24 08:00:34;;;;;;;0.63;0.50;;;;;;;13.35;64.91;101526.41;4896021;29;20049;-86
2022/05/24 08:03:03;;;;;;;0.57;0.40;;;;;;;13.31;64.77;101532.31;4896600;29;20052;-86
2022/05/24 08:05:33;;;;;;;1.58;0.40;;;;;;;13.30;64.42;101523.66;4897177;29;20139;-86
2022/05/24 08:08:03;;;;;;;0.20;0.20;;;;;;;13.27;64.74;101528.72;4897317;29;20052;-86
2022/05/24 08:10:32;;;;;;;0.40;0.25;;;;;;;13.25;63.76;101529.53;4897663;29;20091;-85
2022/05/24 08:13:04;;;;;;;0.45;0.30;;;;;;;13.25;64.11;101514.81;4896489;29;20084;-86
2022/05/24 08:15:32;;;;;;;0.10;0.10;;;;;;;13.24;64.76;101507.84;4879402;29;20063;-86
2022/05/24 08:18:01;;;;;;;0.98;0.30;;;;;;;13.23;65.21;101511.28;4878608;29;20473;-86
2022/05/24 08:20:31;;;;;;;0.10;0.10;;;;;;;13.19;65.42;101515.50;4906990;29;20486;-86
2022/05/24 08:23:00;;;;;;;0.30;0.20;;;;;;;13.16;64.49;101515.41;4916764;28;20099;-87
2022/05/24 08:25:30;;;;;;;0.38;0.25;;;;;;;13.16;65.70;101520.59;4915151;29;20052;-86
2022/05/24 08:28:02;;;;;;;0.30;0.30;;;;;;;13.14;65.11;101514.47;4915131;29;20151;-84
2022/05/24 08:30:32;;;;;;;0.47;0.22;;;;;;;13.11;64.39;101510.91;4915424;29;20056;-85
2022/05/24 08:33:04;;;;;;;0.52;0.47;;;;;;;13.10;64.46;101504.84;4914349;29;20052;-86
2022/05/24 08:35:34;;;;;;;0.30;0.30;;;;;;;13.12;64.76;101504.88;4913767;29;20462;-85
2022/05/24 08:38:03;;;;;;;0.50;0.30;;;;;;;13.11;64.57;101513.50;4919313;29;20044;-85
2022/05/24 08:40:36;;;;;;;0.30;0.30;;;;;;;13.10;64.64;101512.63;4921556;29;20052;-86
2022/05/24 08:43:19;;;;;;;0.50;0.30;;;;;;;13.10;64.45;101510.03;4919464;29;20056;-86
2022/05/24 08:48:48;;;;;;;0.32;0.22;;;;;;;13.06;64.84;101510.75;4862239;29;20057;-85
2022/05/24 08:51:23;;;;;;;0.25;0.20;;;;;;;13.05;65.71;101510.72;4899238;29;20048;-85
2022/05/24 08:53:55;;;;;;;0.80;0.25;;;;;;;13.01;65.42;101504.56;4919154;29;20491;-87
2022/05/24 08:56:30;;;;;;;0.45;0.32;;;;;;;12.98;66.19;101489.72;4919828;29;20088;-86
2022/05/24 08:59:04;;;;;;;0.40;0.22;;;;;;;12.96;66.11;101490.50;4919609;29;20056;-85
2022/05/24 09:01:34;;;;;;;0.10;0.10;;;;;;;12.95;66.10;101494.81;4919202;29;20048;-87
2022/05/24 09:04:02;;;;;;;0.20;0.20;;;;;;;12.92;66.20;101486.94;4919095;29;20052;-88
2022/05/24 09:06:40;;;;;;;0.40;0.28;;;;;;;12.89;65.70;101478.16;4923279;29;20074;-87
2022/05/24 09:09:24;;;;;;;0.47;0.20;;;;;;;12.86;65.71;101478.09;4919662;29;20537;-87
2022/05/24 09:12:07;;;;;;;0.30;0.20;;;;;;;12.83;65.90;101476.28;4918527;29;20608;-86
2022/05/24 09:14:45;;;;;;;0.47;0.30;;;;;;;12.83;66.62;101477.97;4900646;29;20052;-88
2022/05/24 09:17:28;;;;;;;0.40;0.20;;;;;;;12.82;65.72;101477.09;4909453;29;20044;-88
2022/05/24 09:19:57;;;;;;;0.28;0.28;;;;;;;12.82;66.40;101474.50;4915274;29;20519;-87
2022/05/24 09:22:25;;;;;;;0.55;0.22;;;;;;;12.76;66.31;101471.72;4919678;28;20095;-87
2022/05/24 09:24:56;;;;;;;0.35;0.30;;;;;;;12.82;65.84;101479.69;4918226;29;20052;-88
2022/05/24 09:27:30;;;;;;;1.27;0.20;;;;;;;12.82;65.91;101474.50;4919835;29;20058;-87
2022/05/24 09:30:04;;;;;;;0.20;0.20;;;;;;;12.82;65.93;101461.50;4918979;29;20052;-87
2022/05/24 09:32:36;;;;;;;0.30;0.20;;;;;;;12.85;65.37;101460.72;4906246;29;20080;-86
2022/05/24 09:35:12;;;;;;;0.20;0.20;;;;;;;12.81;65.59;101454.56;4900714;29;20563;-87
2022/05/24 09:37:42;;;;;;;1.15;0.40;;;;;;;12.78;65.44;101464.84;4905195;29;20053;-86
2022/05/24 09:40:20;;;;;;;0.60;0.60;;;;;;;12.76;66.00;101462.22;4900775;29;20055;-86
2022/05/24 09:42:50;;;;;;;0.35;0.20;;;;;;;12.73;66.41;101459.50;4899295;29;20055;-87
2022/05/24 09:45:23;;;;;;;0.45;0.17;;;;;;;12.71;66.84;101457.69;4899832;29;20052;-88
2022/05/24 09:47:56;;;;;;;;;;;;;;;12.66;67.35;101452.34;4880500;29;20057;-86
2022/05/24 09:50:29;;;;;;;5.05;0.30;;;;;;;12.64;67.61;101450.53;4880690;29;19972;-87
2022/05/24 09:53:12;;;;;;;0.30;0.30;;;;;;;12.62;67.33;101457.38;4906448;29;20048;-87
2022/05/24 09:55:43;;;;;;;0.60;0.22;;;;;;;12.57;67.36;101465.03;4920660;29;20082;-86
2022/05/24 09:58:22;;;;;;;0.63;0.38;;;;;;;12.52;67.06;101461.41;4919124;29;20107;-86
2022/05/24 10:00:53;;;;;;;2.17;0.63;;;;;;;12.43;68.08;101466.28;4918751;29;20076;-85
2022/05/24 10:03:28;;;;;;;1.48;0.30;;;;;;;12.30;69.52;101460.72;4916129;29;20489;-87
2022/05/24 10:06:15;;;;;;;1.25;0.35;;;;;;;12.20;69.68;101466.41;4916306;29;20044;-87
2022/05/24 10:08:47;;;;;;;0.75;0.60;;;;;;;12.14;69.47;101464.50;4914134;29;20087;-88
2022/05/24 10:11:33;;;;;;;1.10;0.50;;;;;;;12.11;69.26;101463.50;4916649;29;20087;-87
2022/05/24 10:14:13;;;;;;;1.30;0.77;;;;;;;12.12;69.69;101470.47;4916776;29;20072;-87
2022/05/24 10:16:46;;;;;;;2.50;1.30;;;;;;;12.06;69.99;101472.84;4917716;29;20136;-87
2022/05/24 10:19:31;;;;;;;4.22;1.30;;;;;;;12.03;69.98;101472.72;4916931;29;20045;-87
2022/05/24 10:22:08;;;;;;;4.53;0.90;;;;;;;12.02;71.13;101468.34;4919950;28;20417;-86
2022/05/24 10:24:48;;;;;;;1.70;0.90;;;;;;;11.99;70.55;101460.47;4917477;29;20542;-88
2022/05/24 10:27:27;;;;;;;1.30;0.90;;;;;;;11.89;71.51;101457.56;4918577;29;20518;-88
2022/05/24 10:30:04;;;;;;;1.70;0.90;;;;;;;11.78;72.62;101461.44;4917702;29;20044;-87
2022/05/24 10:38:53;;;;;;;1.90;0.80;;;;;;;11.66;73.37;101461.91;4918582;29;20055;-87
2022/05/24 10:41:26;;;;;;;1.92;0.93;;;;;;;11.66;73.62;101455.81;4919333;29;20095;-88
2022/05/24 10:44:05;;;;;;;1.85;1.02;;;;;;;11.66;73.83;101458.41;4921577;29;20483;-88
2022/05/24 10:46:43;;;;;;;1.02;0.70;;;;;;;11.62;72.89;101451.38;4912654;29;20079;-89
2022/05/24 10:49:18;;;;;;;1.13;0.68;;;;;;;11.60;74.51;101460.78;4899480;29;20558;-89
2022/05/24 10:51:53;;;;;;;1.73;0.50;;;;;;;11.57;73.37;101458.97;4903708;29;20399;-89
2022/05/24 10:54:31;;;;;;;0.60;0.40;;;;;;;11.53;73.52;101463.16;4917476;29;20062;-88
2022/05/24 10:57:06;;;;;;;3.63;0.60;;;;;;;11.49;73.39;101458.66;4918292;29;20100;-88
2022/05/24 10:59:46;;;;;;;2.67;0.50;;;;;;;11.47;74.97;101473.28;4917805;29;20052;-89
2022/05/24 11:02:26;;;;;;;1.42;0.55;;;;;;;11.44;74.46;101468.00;4921885;29;20048;-89
2022/05/24 11:05:01;;;;;;;1.33;0.77;;;;;;;11.40;75.19;101476.47;4927180;29;20056;-88
2022/05/24 11:07:34;;;;;;;1.38;0.70;;;;;;;11.38;75.44;101474.66;4920424;29;20526;-90
2022/05/24 11:10:07;;;;;;;;;;;;;;;11.35;75.41;101478.00;4920486;29;20052;-88
2022/05/24 11:12:38;;;;;;;;;;;;;;;11.30;76.61;101471.78;4912828;29;20006;-89
2022/05/24 11:15:13;;;;;;;0.90;0.55;;;;;;;11.30;77.08;101474.38;4902914;29;19980;-89
2022/05/24 11:17:44;;;;;;;3.13;1.05;;;;;;;11.30;77.96;101474.38;4915078;29;20048;-87
2022/05/24 11:20:13;;;;;;;0.43;0.40;;;;;;;11.31;78.06;101482.22;4921156;29;20056;-88
2022/05/24 11:22:46;;;;;;;0.73;0.45;;;;;;;11.29;77.67;101478.66;4919561;28;20060;-89
2022/05/24 11:25:19;;;;;;;;;;;;;;;11.30;78.10;101484.72;4918158;29;20085;-88
2022/05/24 11:27:52;;;;;;;1.00;0.40;;;;;;;11.30;77.99;101479.56;4925931;29;19926;-89
2022/05/24 11:30:36;;;;;;;2.33;0.60;;;;;;;11.30;78.20;101479.56;4921103;29;20104;-89
2022/05/24 11:33:14;;;;;;;0.95;0.57;;;;;;;11.26;78.34;101475.94;4914804;29;20400;-88
2022/05/24 11:35:44;;;;;;;0.73;0.52;;;;;;;11.24;77.49;101463.75;4908287;29;20088;-90
2022/05/24 11:38:16;;;;;;;0.60;0.52;;;;;;;11.21;78.68;101463.66;4905064;29;20578;-89
2022/05/24 11:41:01;;;;;;;0.55;0.40;;;;;;;11.16;78.23;101460.00;4903725;29;20116;-90
2022/05/24 11:43:59;;;;;;;0.50;0.43;;;;;;;11.13;78.51;101463.34;4905150;29;20048;-89
2022/05/24 11:46:48;;;;;;;0.70;0.50;;;;;;;11.08;77.73;101463.16;4911021;29;20048;-89
2022/05/24 11:50:05;;;;;;;0.55;0.43;;;;;;;11.05;76.86;101441.47;4918658;29;20479;-88
2022/05/24 11:53:03;;;;;;;1.38;0.40;;;;;;;11.01;76.81;101443.03;4804951;29;20055;-88
2022/05/24 11:55:44;;;;;;;1.38;0.60;;;;;;;10.96;77.71;101433.34;4879556;29;20491;-89
2022/05/24 11:58:46;;;;;;;3.17;0.60;;;;;;;10.85;79.31;101427.72;4881148;29;20068;-88
2022/05/24 12:01:46;;;;;;;0.70;0.60;;;;;;;10.82;80.12;101427.63;4931386;29;20040;-89
2022/05/24 12:10:52;;;;;;;0.57;0.50;;;;;;;10.72;79.51;101441.00;4916571;29;20077;-88
2022/05/24 12:13:54;;;;;;;0.73;0.50;;;;;;;10.70;79.29;101433.22;4917352;29;20142;-89
2022/05/24 12:16:42;;;;;;;1.75;0.63;;;;;;;10.66;79.07;101429.59;4919636;29;20411;-89
2022/05/24 12:19:12;;;;;;;1.23;0.60;;;;;;;10.62;78.36;101422.53;4915699;29;20080;-88
2022/05/24 12:22:04;;;;;;;0.80;0.40;;;;;;;10.50;79.94;101424.63;4910575;29;20527;-89
2022/05/24 12:24:52;;;;;;;1.13;0.68;;;;;;;10.34;80.97;101427.41;4909972;29;20052;-88
2022/05/24 12:27:56;;;;;;;0.82;0.57;;;;;;;10.23;81.04;101443.34;4889825;29;20064;-89
2022/05/24 12:30:48;;;;;;;1.17;0.80;;;;;;;10.21;80.43;101441.50;4901264;29;20083;-89
2022/05/24 12:33:24;;;;;;;2.22;1.10;;;;;;;10.22;80.11;101445.88;4902049;29;20069;-88